createdAt,value
2022-11-20T00:01:13.379Z,3.00
2022-11-20T00:03:46.065Z,3.00
2022-11-20T00:06:19.561Z,3.03
2022-11-20T00:08:52.117Z,3.07
2022-11-20T00:11:26.791Z,3.10
2022-11-20T00:14:01.948Z,3.09
2022-11-20T00:16:34.711Z,3.09
2022-11-20T00:19:07.245Z,3.12
2022-11-20T00:21:39.297Z,3.13
2022-11-20T00:24:14.316Z,3.11
2022-11-20T00:26:46.330Z,3.15
2022-11-20T00:29:18.628Z,3.13
2022-11-20T00:31:50.675Z,3.09
2022-11-20T00:34:22.720Z,3.03
2022-11-20T00:36:54.677Z,3.05
2022-11-20T00:39:26.649Z,3.05
2022-11-20T00:41:58.675Z,3.11
2022-11-20T00:44:30.583Z,3.07
2022-11-20T00:47:02.565Z,3.00
2022-11-20T00:49:34.531Z,2.98
2022-11-20T00:52:06.487Z,2.98
2022-11-20T00:54:38.487Z,2.92
2022-11-20T00:57:10.455Z,2.80
2022-11-20T00:59:42.567Z,2.75
2022-11-20T01:02:16.588Z,2.70
2022-11-20T01:04:48.529Z,2.63
2022-11-20T01:07:20.543Z,2.48
2022-11-20T01:09:52.567Z,2.54
2022-11-20T01:12:24.505Z,2.58
2022-11-20T01:14:56.411Z,2.58
2022-11-20T01:17:28.335Z,2.66
2022-11-20T01:20:00.587Z,2.68
2022-11-20T01:22:32.528Z,2.70
2022-11-20T01:25:04.898Z,2.78
2022-11-20T01:27:36.816Z,2.79
2022-11-20T01:30:09.563Z,2.85
2022-11-20T01:32:41.511Z,2.86
2022-11-20T01:35:13.558Z,2.90
2022-11-20T01:37:45.470Z,2.91
2022-11-20T01:40:17.471Z,2.89
2022-11-20T01:43:19.981Z,2.91
2022-11-20T01:46:15.577Z,2.95
2022-11-20T01:49:36.865Z,2.97
2022-11-20T01:52:30.478Z,2.90
2022-11-20T01:55:14.263Z,2.82
2022-11-20T01:57:48.316Z,2.81
2022-11-20T02:00:22.265Z,2.78
2022-11-20T02:03:07.319Z,2.77
2022-11-20T02:06:02.163Z,2.78
2022-11-20T02:08:34.411Z,2.74
2022-11-20T02:11:06.854Z,2.77
2022-11-20T02:13:44.385Z,2.76
2022-11-20T02:16:48.243Z,2.72
2022-11-20T02:19:30.740Z,2.74
2022-11-20T02:22:32.541Z,2.73
2022-11-20T02:25:06.901Z,2.63
2022-11-20T02:27:38.967Z,2.59
2022-11-20T02:30:12.126Z,2.66
2022-11-20T02:32:44.184Z,2.65
2022-11-20T02:35:22.000Z,2.65
2022-11-20T02:37:59.531Z,2.63
2022-11-20T02:40:31.489Z,2.64
2022-11-20T02:43:03.790Z,2.61
2022-11-20T02:45:35.834Z,2.61
2022-11-20T02:48:08.779Z,2.55
2022-11-20T02:50:41.425Z,2.63
2022-11-20T02:53:13.396Z,2.72
2022-11-20T02:55:45.391Z,2.78
2022-11-20T02:58:17.338Z,2.84
2022-11-20T03:00:49.270Z,2.84
2022-11-20T03:03:21.251Z,2.86
2022-11-20T03:05:53.272Z,2.89
2022-11-20T03:08:25.189Z,2.89
2022-11-20T03:10:57.152Z,2.86
2022-11-20T03:13:29.101Z,2.93
2022-11-20T03:16:12.614Z,2.97
2022-11-20T03:18:45.159Z,2.99
2022-11-20T03:21:17.664Z,3.04
2022-11-20T03:23:49.649Z,3.04
2022-11-20T03:26:25.358Z,3.08
2022-11-20T03:29:00.698Z,3.12
2022-11-20T03:31:43.111Z,3.12
2022-11-20T03:34:15.033Z,3.12
2022-11-20T03:36:47.253Z,3.16
2022-11-20T03:39:19.442Z,3.19
2022-11-20T03:41:51.690Z,3.18
2022-11-20T03:44:23.721Z,3.16
2022-11-20T03:46:55.631Z,3.22
2022-11-20T03:49:27.555Z,3.18
2022-11-20T03:51:59.483Z,3.18
2022-11-20T03:54:31.462Z,3.23
2022-11-20T03:57:03.531Z,3.25
2022-11-20T03:59:35.453Z,3.27
2022-11-20T04:02:07.416Z,3.27
2022-11-20T04:04:39.395Z,3.29
2022-11-20T04:07:11.595Z,3.26
2022-11-20T04:09:43.639Z,3.27
2022-11-20T04:12:15.546Z,3.29
2022-11-20T04:14:47.484Z,3.31
2022-11-20T04:17:19.548Z,3.26
2022-11-20T04:19:51.489Z,3.30
2022-11-20T04:22:23.455Z,3.29
2022-11-20T04:24:55.385Z,3.28
2022-11-20T04:27:27.316Z,3.29
2022-11-20T04:29:59.274Z,3.33
2022-11-20T04:32:31.224Z,3.31
2022-11-20T04:35:03.186Z,3.25
2022-11-20T04:37:35.110Z,3.15
2022-11-20T04:40:07.612Z,3.19
2022-11-20T04:42:39.556Z,3.21
2022-11-20T04:45:11.530Z,3.26
2022-11-20T04:47:43.538Z,3.25
2022-11-20T04:50:15.644Z,3.25
2022-11-20T04:52:47.640Z,3.28
2022-11-20T04:55:19.616Z,3.23
2022-11-20T04:57:52.576Z,3.26
2022-11-20T05:00:24.516Z,3.21
2022-11-20T05:02:56.686Z,3.19
2022-11-20T05:05:28.800Z,3.13
2022-11-20T05:08:00.877Z,3.17
2022-11-20T05:10:32.840Z,3.24
2022-11-20T05:13:04.747Z,3.33
2022-11-20T05:15:36.747Z,3.30
2022-11-20T05:18:08.774Z,3.30
2022-11-20T05:20:40.689Z,3.28
2022-11-20T05:23:12.689Z,3.26
2022-11-20T05:25:44.690Z,3.30
2022-11-20T05:28:16.667Z,3.32
2022-11-20T05:30:49.260Z,3.31
2022-11-20T05:33:21.865Z,3.28
2022-11-20T05:35:53.854Z,3.30
2022-11-20T05:38:25.830Z,3.28
2022-11-20T05:41:10.237Z,3.25
2022-11-20T05:43:44.999Z,3.24
2022-11-20T05:46:24.773Z,3.28
2022-11-20T05:49:00.249Z,3.29
2022-11-20T05:51:32.243Z,3.26
2022-11-20T05:54:04.183Z,3.25
2022-11-20T05:56:36.501Z,3.25
2022-11-20T05:59:08.501Z,3.23
2022-11-20T06:01:40.669Z,3.24
2022-11-20T06:04:12.608Z,3.27
2022-11-20T06:06:44.614Z,3.28
2022-11-20T06:09:16.627Z,3.27
2022-11-20T06:11:48.615Z,3.27
2022-11-20T06:14:20.554Z,3.27
2022-11-20T06:16:52.567Z,3.25
2022-11-20T06:19:24.515Z,3.27
2022-11-20T06:21:56.492Z,3.27
2022-11-20T06:24:28.489Z,3.31
2022-11-20T06:27:00.429Z,3.26
2022-11-20T06:29:34.118Z,3.21
2022-11-20T06:32:06.492Z,3.16
2022-11-20T06:34:38.423Z,3.16
2022-11-20T06:37:10.414Z,3.12
2022-11-20T06:39:42.334Z,3.11
2022-11-20T06:42:14.262Z,3.13
2022-11-20T06:44:46.223Z,3.09
2022-11-20T06:47:18.189Z,3.15
2022-11-20T06:49:50.111Z,3.18
2022-11-20T06:52:22.146Z,3.21
2022-11-20T06:54:54.060Z,3.22
2022-11-20T06:57:26.177Z,3.17
2022-11-20T06:59:58.140Z,3.13
2022-11-20T07:02:30.095Z,3.03
2022-11-20T07:05:02.188Z,3.00
2022-11-20T07:07:34.186Z,2.94
2022-11-20T07:10:06.868Z,2.94
2022-11-20T07:12:38.803Z,2.91
2022-11-20T07:15:11.245Z,2.88
2022-11-20T07:17:43.208Z,2.90
2022-11-20T07:20:15.971Z,2.97
2022-11-20T07:22:47.920Z,2.99
2022-11-20T07:25:19.830Z,3.05
2022-11-20T07:27:52.050Z,3.05
2022-11-20T07:30:23.979Z,3.05
2022-11-20T07:32:57.398Z,3.00
2022-11-20T07:35:29.484Z,2.89
2022-11-20T07:38:01.424Z,2.85
2022-11-20T07:40:33.454Z,2.81
2022-11-20T07:43:05.429Z,2.78
2022-11-20T07:45:37.341Z,2.75
2022-11-20T07:48:09.435Z,2.74
2022-11-20T07:50:41.351Z,2.77
2022-11-20T07:53:14.893Z,2.84
2022-11-20T07:55:46.824Z,2.82
2022-11-20T07:58:19.343Z,2.90
2022-11-20T08:00:51.383Z,2.91
2022-11-20T08:03:25.156Z,3.03
2022-11-20T08:06:01.872Z,3.15
2022-11-20T08:08:34.911Z,3.14
2022-11-20T08:11:37.606Z,3.10
2022-11-20T08:14:16.389Z,3.18
2022-11-20T08:16:52.831Z,3.16
2022-11-20T08:19:25.073Z,3.22
2022-11-20T08:21:57.169Z,3.38
2022-11-20T08:24:29.113Z,3.36
2022-11-20T08:27:01.463Z,3.50
2022-11-20T08:29:33.460Z,3.57
2022-11-20T08:32:05.579Z,3.44
2022-11-20T08:34:37.533Z,3.51
2022-11-20T08:37:09.445Z,3.62
2022-11-20T08:39:41.363Z,3.71
2022-11-20T08:42:13.258Z,3.85
2022-11-20T08:44:45.244Z,3.83
2022-11-20T08:47:17.190Z,3.82
2022-11-20T08:49:49.119Z,3.90
2022-11-20T08:52:21.080Z,4.01
2022-11-20T08:54:53.003Z,4.08
2022-11-20T08:57:24.953Z,4.01
2022-11-20T09:00:05.960Z,4.10
2022-11-20T09:02:38.919Z,4.10
2022-11-20T09:05:10.881Z,4.10
2022-11-20T09:07:43.245Z,4.29
2022-11-20T09:10:30.656Z,4.36
2022-11-20T09:13:02.744Z,4.35
2022-11-20T09:15:35.119Z,4.27
2022-11-20T09:18:07.275Z,4.16
2022-11-20T09:20:39.456Z,4.14
2022-11-20T09:23:11.530Z,4.12
2022-11-20T09:25:44.243Z,4.06
2022-11-20T09:28:16.231Z,4.06
2022-11-20T09:30:48.367Z,4.07
2022-11-20T09:33:20.281Z,4.19
2022-11-20T09:35:52.287Z,4.24
2022-11-20T09:38:24.223Z,4.18
2022-11-20T09:41:07.059Z,4.11
2022-11-20T09:44:23.855Z,4.04
2022-11-20T09:47:07.715Z,4.01
2022-11-20T09:49:39.536Z,3.99
2022-11-20T09:52:45.370Z,3.88
2022-11-20T09:55:18.126Z,3.93
2022-11-20T09:57:53.235Z,3.92
2022-11-20T10:00:25.377Z,3.88
2022-11-20T10:03:12.127Z,3.80
2022-11-20T10:05:48.876Z,3.79
2022-11-20T10:08:32.964Z,3.79
2022-11-20T10:11:33.856Z,3.85
2022-11-20T10:14:43.138Z,3.82
2022-11-20T10:18:01.352Z,3.79
2022-11-20T10:21:08.797Z,3.65
2022-11-20T10:24:22.246Z,3.69
2022-11-20T10:27:50.314Z,3.63
2022-11-20T10:30:25.883Z,3.68
2022-11-20T10:33:23.312Z,3.70
2022-11-20T10:36:19.115Z,3.68
2022-11-20T10:38:58.554Z,3.59
2022-11-20T10:41:42.775Z,3.62
2022-11-20T10:44:39.208Z,3.63
2022-11-20T10:47:23.411Z,3.65
2022-11-20T10:49:59.379Z,3.58
2022-11-20T10:52:43.991Z,3.42
2022-11-20T10:55:30.943Z,3.35
2022-11-20T10:58:24.942Z,3.35
2022-11-20T11:01:16.803Z,3.41
2022-11-20T11:03:51.991Z,3.47
2022-11-20T11:06:39.437Z,3.48
2022-11-20T11:09:24.610Z,3.51
2022-11-20T11:11:56.732Z,3.37
2022-11-20T11:14:28.655Z,3.33
2022-11-20T11:17:00.655Z,3.38
2022-11-20T11:19:32.569Z,3.30
2022-11-20T11:22:18.118Z,3.27
2022-11-20T11:24:54.583Z,3.31
2022-11-20T11:27:26.766Z,3.25
2022-11-20T11:30:15.843Z,3.30
2022-11-20T11:32:48.827Z,3.30
2022-11-20T11:35:25.795Z,3.42
2022-11-20T11:38:12.114Z,3.61
2022-11-20T11:40:45.691Z,3.89
2022-11-20T11:43:50.295Z,4.04
2022-11-20T11:46:33.563Z,4.02
2022-11-20T11:49:11.527Z,4.15
2022-11-20T11:52:04.958Z,4.08
2022-11-20T11:54:55.495Z,4.05
2022-11-20T11:57:39.092Z,4.11
2022-11-20T12:00:20.895Z,4.22
2022-11-20T12:03:14.324Z,4.43
2022-11-20T12:05:55.300Z,4.56
2022-11-20T12:08:50.004Z,4.72
2022-11-20T12:11:36.167Z,5.01
2022-11-20T12:14:25.144Z,4.95
2022-11-20T12:16:58.776Z,4.90
2022-11-20T12:19:35.816Z,4.91
2022-11-20T12:22:23.876Z,4.75
2022-11-20T12:25:02.168Z,4.73
2022-11-20T12:28:01.187Z,4.65
2022-11-20T12:30:41.873Z,4.69
2022-11-20T12:33:37.643Z,4.56
2022-11-20T12:36:34.420Z,4.36
2022-11-20T12:39:16.920Z,4.37
2022-11-20T12:42:45.405Z,4.41
2022-11-20T12:45:35.553Z,4.58
2022-11-20T12:48:43.539Z,4.65
2022-11-20T12:51:20.912Z,4.39
2022-11-20T12:54:07.020Z,4.44
2022-11-20T12:57:04.331Z,4.33
2022-11-20T13:00:08.307Z,4.32
2022-11-20T13:03:24.754Z,4.30
2022-11-20T13:06:18.789Z,4.13
2022-11-20T13:08:57.162Z,4.04
2022-11-20T13:12:03.667Z,4.03
2022-11-20T13:14:56.529Z,4.08
2022-11-20T13:17:44.383Z,4.24
2022-11-20T13:20:19.423Z,4.44
2022-11-20T13:22:58.273Z,4.45
2022-11-20T13:25:31.655Z,4.51
2022-11-20T13:28:12.572Z,4.34
2022-11-20T13:30:56.083Z,4.11
2022-11-20T13:33:39.983Z,4.04
2022-11-20T13:36:28.265Z,3.97
2022-11-20T13:39:00.914Z,3.98
2022-11-20T13:41:38.966Z,4.01
2022-11-20T13:44:23.255Z,3.88
2022-11-20T13:46:55.621Z,3.81
2022-11-20T13:49:44.810Z,3.55
2022-11-20T13:53:06.070Z,3.52
2022-11-20T13:56:31.809Z,3.29
2022-11-20T13:59:35.657Z,3.38
2022-11-20T14:02:14.563Z,3.36
2022-11-20T14:04:53.736Z,3.48
2022-11-20T14:07:41.085Z,3.44
2022-11-20T14:10:30.085Z,3.40
2022-11-20T14:13:21.551Z,3.38
2022-11-20T14:15:59.425Z,3.33
2022-11-20T14:18:31.495Z,3.39
2022-11-20T14:21:04.831Z,3.38
2022-11-20T14:23:36.836Z,3.27
2022-11-20T14:26:15.756Z,3.19
2022-11-20T14:28:52.106Z,3.18
2022-11-20T14:31:29.109Z,3.10
2022-11-20T14:34:03.876Z,3.16
2022-11-20T14:36:35.926Z,3.11
2022-11-20T14:39:13.626Z,3.14
2022-11-20T14:41:53.273Z,3.18
2022-11-20T14:44:31.923Z,3.12
2022-11-20T14:47:05.208Z,3.06
2022-11-20T14:49:38.163Z,3.01
2022-11-20T14:52:23.700Z,2.89
2022-11-20T14:55:00.614Z,2.76
2022-11-20T14:57:35.867Z,2.66
2022-11-20T15:00:14.137Z,2.51
2022-11-20T15:02:49.199Z,2.40
2022-11-20T15:05:25.484Z,2.36
2022-11-20T15:08:09.888Z,2.29
2022-11-20T15:10:49.284Z,2.29
2022-11-20T15:13:35.916Z,2.33
2022-11-20T15:16:28.986Z,2.25
2022-11-20T15:19:03.991Z,2.25
2022-11-20T15:21:35.949Z,2.26
2022-11-20T15:24:11.030Z,2.21
2022-11-20T15:26:43.933Z,2.13
2022-11-20T15:29:20.332Z,2.05
2022-11-20T15:31:53.710Z,2.10
2022-11-20T15:34:27.938Z,2.04
2022-11-20T15:36:59.910Z,2.02
2022-11-20T15:39:31.887Z,2.00
2022-11-20T15:42:03.865Z,2.05
2022-11-20T15:44:35.833Z,2.01
2022-11-20T15:47:10.779Z,1.97
2022-11-20T15:49:42.743Z,1.99
2022-11-20T15:52:15.219Z,1.89
2022-11-20T15:54:47.859Z,1.87
2022-11-20T15:57:20.093Z,1.90
2022-11-20T15:59:52.054Z,1.96
2022-11-20T16:02:23.981Z,1.97
2022-11-20T16:04:55.938Z,1.96
2022-11-20T16:07:27.968Z,1.95
2022-11-20T16:10:00.165Z,1.94
2022-11-20T16:12:50.773Z,1.88
2022-11-20T16:15:41.038Z,1.82
2022-11-20T16:18:15.218Z,1.71
2022-11-20T16:20:51.336Z,1.70
2022-11-20T16:23:23.543Z,1.64
2022-11-20T16:25:55.650Z,1.71
2022-11-20T16:28:27.592Z,1.76
2022-11-20T16:31:10.625Z,1.81
2022-11-20T16:33:42.945Z,1.75
2022-11-20T16:36:16.436Z,1.70
2022-11-20T16:39:00.964Z,1.74
2022-11-20T16:41:35.345Z,1.65
2022-11-20T16:44:11.767Z,1.66
2022-11-20T16:46:43.749Z,1.58
2022-11-20T16:49:15.835Z,1.45
2022-11-20T16:51:47.828Z,1.38
2022-11-20T16:54:21.388Z,1.39
2022-11-20T16:56:54.302Z,1.46
2022-11-20T16:59:26.285Z,1.45
2022-11-20T17:01:58.341Z,1.44
2022-11-20T17:04:30.332Z,1.47
2022-11-20T17:07:07.845Z,1.47
2022-11-20T17:09:41.134Z,1.45
2022-11-20T17:12:13.113Z,1.44
2022-11-20T17:14:45.049Z,1.46
2022-11-20T17:17:17.131Z,1.49
2022-11-20T17:19:49.074Z,1.50
2022-11-20T17:22:21.044Z,1.55
2022-11-20T17:24:53.024Z,1.55
2022-11-20T17:27:25.201Z,1.52
2022-11-20T17:29:59.128Z,1.54
2022-11-20T17:32:31.112Z,1.53
2022-11-20T17:35:03.114Z,1.53
2022-11-20T17:37:36.054Z,1.53
2022-11-20T17:40:08.310Z,1.53
2022-11-20T17:42:40.284Z,1.52
2022-11-20T17:45:12.231Z,1.54
2022-11-20T17:47:46.537Z,1.54
2022-11-20T17:50:18.528Z,1.54
2022-11-20T17:52:50.488Z,1.54
2022-11-20T17:55:23.545Z,1.55
2022-11-20T17:58:02.822Z,1.50
2022-11-20T18:00:34.849Z,1.51
2022-11-20T18:03:06.779Z,1.51
2022-11-20T18:05:38.802Z,1.48
2022-11-20T18:08:10.742Z,1.49
2022-11-20T18:10:42.665Z,1.49
2022-11-20T18:13:14.611Z,1.43
2022-11-20T18:15:46.570Z,1.42
2022-11-20T18:18:18.634Z,1.43
2022-11-20T18:20:53.925Z,1.39
2022-11-20T18:23:25.885Z,1.42
2022-11-20T18:26:00.900Z,1.40
2022-11-20T18:28:37.563Z,1.37
2022-11-20T18:31:09.800Z,1.35
2022-11-20T18:33:42.055Z,1.41
2022-11-20T18:36:20.786Z,1.44
2022-11-20T18:38:56.232Z,1.48
2022-11-20T18:41:49.693Z,1.48
2022-11-20T18:44:49.645Z,1.46
2022-11-20T18:47:36.193Z,1.42
2022-11-20T18:50:09.597Z,1.37
2022-11-20T18:52:47.962Z,1.36
2022-11-20T18:55:20.013Z,1.37
2022-11-20T18:57:52.700Z,1.34
2022-11-20T19:00:24.849Z,1.27
2022-11-20T19:02:56.870Z,1.32
2022-11-20T19:05:28.919Z,1.31
2022-11-20T19:08:00.856Z,1.31
2022-11-20T19:10:32.865Z,1.28
2022-11-20T19:13:04.979Z,1.27
2022-11-20T19:15:37.793Z,1.26
2022-11-20T19:18:10.141Z,1.21
2022-11-20T19:20:42.492Z,1.17
2022-11-20T19:23:14.687Z,1.18
2022-11-20T19:25:46.740Z,1.19
2022-11-20T19:28:18.715Z,1.17
2022-11-20T19:30:50.670Z,1.21
2022-11-20T19:33:22.687Z,1.29
2022-11-20T19:35:54.638Z,1.27
2022-11-20T19:38:26.548Z,1.31
2022-11-20T19:40:58.511Z,1.35
2022-11-20T19:43:30.689Z,1.41
2022-11-20T19:46:03.262Z,1.45
2022-11-20T19:48:37.753Z,1.47
2022-11-20T19:51:13.729Z,1.48
2022-11-20T19:53:45.875Z,1.50
2022-11-20T19:56:18.716Z,1.51
2022-11-20T19:58:50.667Z,1.49
2022-11-20T20:01:27.256Z,1.49
2022-11-20T20:04:02.659Z,1.48
2022-11-20T20:06:38.852Z,1.50
2022-11-20T20:09:13.239Z,1.50
2022-11-20T20:11:47.243Z,1.59
2022-11-20T20:14:19.327Z,1.55
2022-11-20T20:16:51.367Z,1.56
2022-11-20T20:19:23.638Z,1.55
2022-11-20T20:21:55.789Z,1.59
2022-11-20T20:24:27.753Z,1.56
2022-11-20T20:26:59.713Z,1.54
2022-11-20T20:29:31.649Z,1.52
2022-11-20T20:32:03.636Z,1.53
2022-11-20T20:34:35.641Z,1.56
2022-11-20T20:37:07.627Z,1.60
2022-11-20T20:39:39.622Z,1.57
2022-11-20T20:42:11.593Z,1.58
2022-11-20T20:45:01.890Z,1.58
2022-11-20T20:47:35.597Z,1.52
2022-11-20T20:50:11.150Z,1.52
2022-11-20T20:52:43.240Z,1.54
2022-11-20T20:55:15.246Z,1.51
2022-11-20T20:57:47.253Z,1.51
2022-11-20T21:00:19.521Z,1.53
2022-11-20T21:02:51.544Z,1.57
2022-11-20T21:05:23.550Z,1.60
2022-11-20T21:08:13.874Z,1.62
2022-11-20T21:10:45.824Z,1.59
2022-11-20T21:13:18.679Z,1.52
2022-11-20T21:15:52.068Z,1.47
2022-11-20T21:18:24.932Z,1.47
2022-11-20T21:21:15.320Z,1.46
2022-11-20T21:23:48.294Z,1.49
2022-11-20T21:26:21.558Z,1.50
2022-11-20T21:28:53.885Z,1.48
2022-11-20T21:31:26.937Z,1.49
2022-11-20T21:33:59.119Z,1.48
2022-11-20T21:36:32.092Z,1.50
2022-11-20T21:39:04.070Z,1.44
2022-11-20T21:41:36.075Z,1.39
2022-11-20T21:44:30.659Z,1.44
2022-11-20T21:47:03.469Z,1.45
2022-11-20T21:49:35.460Z,1.49
2022-11-20T21:52:07.383Z,1.49
2022-11-20T21:54:39.337Z,1.53
2022-11-20T21:57:11.287Z,1.53
2022-11-20T21:59:43.251Z,1.51
2022-11-20T22:02:15.202Z,1.49
2022-11-20T22:04:47.166Z,1.49
2022-11-20T22:07:19.183Z,1.50
2022-11-20T22:09:51.135Z,1.48
2022-11-20T22:12:23.059Z,1.49
2022-11-20T22:14:55.054Z,1.47
2022-11-20T22:17:45.647Z,1.45
2022-11-20T22:20:17.750Z,1.40
2022-11-20T22:22:49.689Z,1.40
2022-11-20T22:25:21.669Z,1.46
2022-11-20T22:27:53.617Z,1.48
2022-11-20T22:30:26.418Z,1.50
2022-11-20T22:32:58.365Z,1.49
2022-11-20T22:35:30.553Z,1.45
2022-11-20T22:38:02.606Z,1.42
2022-11-20T22:40:34.597Z,1.37
2022-11-20T22:43:06.506Z,1.35
2022-11-20T22:45:38.671Z,1.27
2022-11-20T22:48:10.590Z,1.23
2022-11-20T22:50:42.569Z,1.19
2022-11-20T22:53:14.514Z,1.12
2022-11-20T22:55:49.824Z,1.11
2022-11-20T22:58:22.420Z,1.10
2022-11-20T23:00:54.426Z,1.06
2022-11-20T23:03:26.514Z,1.03
2022-11-20T23:06:01.764Z,1.04
2022-11-20T23:08:34.109Z,0.98
2022-11-20T23:11:09.903Z,0.94
2022-11-20T23:13:42.961Z,0.91
2022-11-20T23:16:18.416Z,0.85
2022-11-20T23:18:55.327Z,0.85
2022-11-20T23:21:27.942Z,0.85
2022-11-20T23:24:00.349Z,0.85
2022-11-20T23:26:36.020Z,0.83
2022-11-20T23:29:08.575Z,0.86
2022-11-20T23:31:40.712Z,0.83
2022-11-20T23:34:12.646Z,0.84
2022-11-20T23:36:44.632Z,0.86
2022-11-20T23:39:16.876Z,0.90
2022-11-20T23:41:48.924Z,0.91
2022-11-20T23:44:20.921Z,0.94
2022-11-20T23:46:52.892Z,0.90
2022-11-20T23:49:24.798Z,0.88
2022-11-20T23:51:56.923Z,0.80
2022-11-20T23:54:29.223Z,0.79
2022-11-20T23:57:01.310Z,0.73
2022-11-20T23:59:33.278Z,0.72
